Time;durP1;ratioP1;P1;durP2;ratioP2;P2;SDS_P1;SDS_P2;PMS_P1;PMS_P2;Temp;Humidity;BMP_temperature;BMP_pressure;BME280_temperature;BME280_humidity;BME280_pressure;Samples;Min_cycle;Max_cycle;Signal;HPM_P1;HPM_P2
2022/02/12 00:00:18;;;;;;;4.47;2.88;;;17.50;44.20;;;;;;5135848;27;20023;-50
2022/02/12 00:02:43;;;;;;;5.57;3.60;;;17.50;44.30;;;;;;5134547;27;20470;-49
2022/02/12 00:05:14;;;;;;;5.80;3.55;;;17.50;44.20;;;;;;5134440;27;20083;-51
2022/02/12 00:07:40;;;;;;;5.63;3.22;;;17.50;44.30;;;;;;5134320;27;20007;-47
2022/02/12 00:10:06;;;;;;;6.07;3.17;;;17.50;44.30;;;;;;5134251;27;20032;-48
2022/02/12 00:12:33;;;;;;;5.55;3.20;;;17.50;44.30;;;;;;5134551;27;20110;-48
2022/02/12 00:14:59;;;;;;;6.07;3.55;;;17.50;44.30;;;;;;5134249;27;20102;-48
2022/02/12 00:17:25;;;;;;;5.55;2.97;;;17.50;44.30;;;;;;5134371;27;20082;-49
2022/02/12 00:19:50;;;;;;;4.80;3.28;;;17.50;44.30;;;;;;5134224;28;20093;-48
2022/02/12 00:22:16;;;;;;;6.22;3.20;;;17.50;44.30;;;;;;5134308;27;20037;-49
2022/02/12 00:24:42;;;;;;;4.53;3.08;;;17.40;44.40;;;;;;5134344;27;20031;-48
2022/02/12 00:27:08;;;;;;;4.68;2.83;;;17.40;44.40;;;;;;5135375;27;20502;-49
2022/02/12 00:29:34;;;;;;;4.88;3.13;;;17.50;44.40;;;;;;5138352;27;20113;-49
2022/02/12 00:32:00;;;;;;;5.15;3.08;;;17.50;44.40;;;;;;5137218;27;20471;-51
2022/02/12 00:34:26;;;;;;;4.65;3.45;;;17.50;44.40;;;;;;5138449;27;20502;-52
2022/02/12 00:36:52;;;;;;;5.18;3.00;;;17.40;44.40;;;;;;5120246;27;20024;-51
2022/02/12 00:39:18;;;;;;;4.25;3.30;;;17.40;44.60;;;;;;5137867;27;20389;-53
2022/02/12 00:41:44;;;;;;;5.13;3.10;;;17.40;44.60;;;;;;5141066;27;20015;-50
2022/02/12 00:44:10;;;;;;;5.93;3.22;;;17.40;44.60;;;;;;5124663;27;20022;-49
2022/02/12 00:46:36;;;;;;;6.03;3.10;;;17.40;44.50;;;;;;5140171;27;20068;-50
2022/02/12 00:49:03;;;;;;;4.43;3.35;;;17.40;44.50;;;;;;5138900;27;20051;-49
2022/02/12 00:51:30;;;;;;;4.22;3.17;;;17.40;44.50;;;;;;5138379;27;20523;-48
2022/02/12 00:53:56;;;;;;;7.47;3.42;;;17.40;44.50;;;;;;5137910;27;20072;-49
2022/02/12 00:56:22;;;;;;;4.72;3.25;;;17.40;44.50;;;;;;5137545;27;20060;-52
2022/02/12 00:58:48;;;;;;;4.72;2.70;;;17.40;44.50;;;;;;5137377;27;20012;-48
2022/02/12 01:01:14;;;;;;;3.92;3.17;;;17.40;44.60;;;;;;5137405;27;20038;-52
2022/02/12 01:03:41;;;;;;;7.00;3.50;;;17.40;44.60;;;;;;5137390;27;20469;-53
2022/02/12 01:06:07;;;;;;;5.25;3.45;;;17.40;44.60;;;;;;5137593;27;20027;-50
2022/02/12 01:08:33;;;;;;;5.57;3.17;;;17.40;44.60;;;;;;5137482;27;20034;-51
2022/02/12 01:10:59;;;;;;;4.70;3.30;;;17.40;44.60;;;;;;5136454;27;20011;-48
2022/02/12 01:13:25;;;;;;;5.90;3.53;;;17.40;44.70;;;;;;5137349;27;20489;-53
2022/02/12 01:15:52;;;;;;;5.78;3.17;;;17.30;44.60;;;;;;5137168;27;20008;-54
2022/02/12 01:18:17;;;;;;;4.43;3.40;;;17.30;44.60;;;;;;5136081;27;20118;-53
2022/02/12 01:20:43;;;;;;;5.38;3.30;;;17.30;44.60;;;;;;5136712;28;20362;-48
2022/02/12 01:23:10;;;;;;;6.40;3.30;;;17.30;44.70;;;;;;5135529;28;20025;-48
2022/02/12 01:25:36;;;;;;;6.30;3.22;;;17.30;44.70;;;;;;5135116;28;20075;-52
2022/02/12 01:28:02;;;;;;;6.90;3.30;;;17.30;44.70;;;;;;5136137;27;20045;-51
2022/02/12 01:30:27;;;;;;;6.68;3.58;;;17.30;44.70;;;;;;5136409;28;20030;-49
2022/02/12 01:32:54;;;;;;;4.63;3.05;;;17.30;44.60;;;;;;5140519;28;20015;-48
2022/02/12 01:35:40;;;;;;;4.03;2.80;;;17.30;44.70;;;;;;5137214;28;20462;-48
2022/02/12 01:38:28;;;;;;;5.43;3.35;;;17.30;44.70;;;;;;5135895;27;20035;-50
2022/02/12 01:40:55;;;;;;;6.13;3.15;;;17.30;44.70;;;;;;5136141;27;20015;-47
2022/02/12 01:43:20;;;;;;;4.80;3.00;;;17.30;44.70;;;;;;5134769;28;20016;-50
2022/02/12 01:45:46;;;;;;;6.35;3.20;;;17.20;44.70;;;;;;5135981;28;20045;-47
2022/02/12 01:48:13;;;;;;;6.20;3.60;;;17.30;44.80;;;;;;5135932;28;20039;-48
2022/02/12 01:50:39;;;;;;;5.03;3.42;;;17.20;44.70;;;;;;5135027;28;20014;-48
2022/02/12 01:53:05;;;;;;;6.72;3.05;;;17.20;44.70;;;;;;5135564;28;20079;-47
2022/02/12 01:55:31;;;;;;;5.60;3.33;;;17.20;44.80;;;;;;5136754;28;20011;-50
2022/02/12 01:57:57;;;;;;;5.85;3.53;;;17.20;44.80;;;;;;5136542;28;20099;-51
2022/02/12 02:00:23;;;;;;;6.47;3.30;;;17.20;44.80;;;;;;5135768;28;20074;-50
2022/02/12 02:02:49;;;;;;;6.20;3.38;;;17.20;44.70;;;;;;5136479;27;20015;-50
2022/02/12 02:05:16;;;;;;;8.23;3.42;;;17.20;44.80;;;;;;5135029;28;20024;-48
2022/02/12 02:07:42;;;;;;;6.53;3.58;;;17.20;44.80;;;;;;5137699;27;20047;-53
2022/02/12 02:10:10;;;;;;;6.13;3.40;;;17.20;44.80;;;;;;5139023;27;20019;-49
2022/02/12 02:12:35;;;;;;;4.93;3.30;;;17.20;44.90;;;;;;5136827;27;20016;-51
2022/02/12 02:15:03;;;;;;;4.30;3.00;;;17.10;44.90;;;;;;5137726;28;20022;-49
2022/02/12 02:17:30;;;;;;;5.72;3.60;;;17.10;44.90;;;;;;5136692;27;20458;-49
2022/02/12 02:19:55;;;;;;;6.65;3.20;;;17.20;44.90;;;;;;5086475;27;1395205;-51
2022/02/12 02:22:30;;;;;;;3.65;2.80;;;17.20;44.90;;;;;;5138773;27;20507;-48
2022/02/12 02:24:56;;;;;;;5.10;3.28;;;17.20;44.90;;;;;;5137326;27;20059;-50
2022/02/12 02:27:22;;;;;;;5.95;3.50;;;17.20;44.90;;;;;;5135688;27;20019;-50
2022/02/12 02:29:47;;;;;;;4.28;3.40;;;17.20;44.90;;;;;;5135463;27;20031;-50
2022/02/12 02:32:13;;;;;;;5.22;3.28;;;17.10;44.90;;;;;;5135664;27;20019;-50
2022/02/12 02:34:52;;;;;;;3.72;2.88;;;17.10;45.00;;;;;;5136927;27;20479;-50
2022/02/12 02:37:18;;;;;;;5.90;3.38;;;17.10;44.90;;;;;;5137004;27;20477;-48
2022/02/12 02:39:44;;;;;;;4.15;3.10;;;17.10;44.90;;;;;;5136241;27;20016;-48
2022/02/12 02:42:10;;;;;;;6.10;2.97;;;17.10;45.00;;;;;;5136200;27;20023;-50
2022/02/12 02:44:37;;;;;;;4.95;3.40;;;17.10;45.00;;;;;;5134739;27;20027;-52
2022/02/12 02:47:32;;;;;;;6.93;3.30;;;17.10;45.00;;;;;;5135781;27;20074;-51
2022/02/12 02:49:49;;;;;;;5.75;3.15;;;17.00;45.00;;;;;;5134259;27;20045;-52
2022/02/12 02:57:44;;;;;;;6.00;3.17;;;17.00;45.10;;;;;;5135277;27;20025;-51
2022/02/12 03:00:10;;;;;;;4.55;3.10;;;17.00;45.60;;;;;;5134955;27;20019;-51
2022/02/12 03:02:37;;;;;;;5.53;3.67;;;17.10;45.10;;;;;;5134791;27;20050;-51
2022/02/12 03:05:03;;;;;;;6.38;3.30;;;17.00;45.00;;;;;;5133650;27;20015;-53
2022/02/12 03:07:30;;;;;;;4.75;3.20;;;17.10;45.10;;;;;;5134774;27;20538;-53
2022/02/12 03:09:56;;;;;;;4.63;3.17;;;17.00;45.10;;;;;;5134873;27;20027;-51
2022/02/12 03:12:22;;;;;;;4.78;3.00;;;17.00;45.10;;;;;;5134115;27;20017;-57
2022/02/12 03:14:48;;;;;;;7.80;3.67;;;17.00;45.10;;;;;;5135299;27;20023;-50
2022/02/12 03:17:17;;;;;;;7.63;3.35;;;17.00;45.10;;;;;;5135357;27;20043;-51
2022/02/12 03:19:43;;;;;;;4.65;2.88;;;17.00;45.20;;;;;;5134552;27;20047;-52
2022/02/12 03:22:09;;;;;;;4.55;3.25;;;17.00;45.20;;;;;;5134547;27;20034;-50
2022/02/12 03:24:35;;;;;;;4.78;2.92;;;16.90;45.20;;;;;;5135225;27;20031;-53
2022/02/12 03:27:01;;;;;;;4.82;3.30;;;17.00;45.20;;;;;;5135419;27;20015;-52
2022/02/12 03:29:27;;;;;;;4.95;3.40;;;16.90;45.10;;;;;;5133658;27;20027;-53
2022/02/12 03:31:53;;;;;;;4.72;2.97;;;17.00;45.20;;;;;;5135180;27;20023;-51
2022/02/12 03:34:27;;;;;;;4.68;3.10;;;16.90;45.10;;;;;;5117470;27;20109;-53
2022/02/12 03:36:53;;;;;;;5.63;3.08;;;17.00;45.20;;;;;;5134709;27;20043;-53
2022/02/12 03:39:19;;;;;;;4.70;3.33;;;17.00;45.20;;;;;;5133642;27;20094;-52
2022/02/12 03:41:45;;;;;;;5.78;3.42;;;16.90;45.20;;;;;;5134476;27;20501;-52
2022/02/12 03:44:11;;;;;;;5.80;3.30;;;16.90;45.20;;;;;;5116096;27;20409;-53
2022/02/12 03:46:37;;;;;;;5.00;3.13;;;16.90;45.10;;;;;;5133513;27;20035;-52
2022/02/12 03:49:05;;;;;;;4.60;3.03;;;16.90;45.10;;;;;;5116691;27;20027;-53
2022/02/12 03:51:31;;;;;;;6.05;3.00;;;16.90;45.20;;;;;;5133248;27;20007;-53
2022/02/12 03:53:57;;;;;;;4.43;2.80;;;16.90;45.20;;;;;;5134705;27;20043;-52
2022/02/12 03:56:23;;;;;;;5.32;3.17;;;16.90;45.20;;;;;;5133144;27;20064;-51
2022/02/12 03:58:49;;;;;;;5.05;3.25;;;16.90;45.20;;;;;;5134363;27;20075;-53
2022/02/12 04:01:15;;;;;;;6.25;3.58;;;16.80;45.20;;;;;;5135048;27;20098;-51
2022/02/12 04:03:42;;;;;;;4.53;3.50;;;16.90;45.30;;;;;;5135241;27;20536;-51
2022/02/12 04:06:08;;;;;;;4.93;3.33;;;16.80;45.30;;;;;;5134348;27;20547;-50
2022/02/12 04:08:34;;;;;;;5.97;3.42;;;16.80;45.30;;;;;;5135150;27;20031;-51
2022/02/12 04:10:59;;;;;;;5.70;3.38;;;16.80;45.30;;;;;;5134784;27;20015;-52
2022/02/12 04:13:25;;;;;;;5.50;3.20;;;16.80;45.30;;;;;;5134426;28;20023;-52
2022/02/12 04:15:51;;;;;;;6.10;3.17;;;16.80;45.30;;;;;;5133248;28;20016;-52
2022/02/12 04:18:16;;;;;;;4.65;3.10;;;16.80;45.30;;;;;;5134159;28;20015;-50
2022/02/12 04:20:42;;;;;;;4.05;2.85;;;16.80;45.30;;;;;;5116384;28;20026;-50
2022/02/12 04:23:09;;;;;;;4.75;3.05;;;16.80;45.30;;;;;;5116906;28;20020;-50
2022/02/12 04:25:34;;;;;;;6.80;3.15;;;16.80;45.30;;;;;;5135187;27;20370;-55
2022/02/12 04:28:08;;;;;;;4.97;3.35;;;16.80;45.40;;;;;;5135290;27;20080;-49
2022/02/12 04:30:36;;;;;;;4.40;3.08;;;16.80;45.40;;;;;;5134723;27;20042;-50
2022/02/12 04:33:03;;;;;;;4.30;3.17;;;16.80;45.40;;;;;;5134792;27;20090;-53
2022/02/12 04:35:29;;;;;;;3.88;2.78;;;16.70;45.40;;;;;;5133090;28;20007;-53
2022/02/12 04:37:57;;;;;;;4.78;3.17;;;16.80;45.40;;;;;;5133071;28;20482;-56
2022/02/12 04:40:23;;;;;;;4.70;2.88;;;16.80;45.30;;;;;;5134453;27;20019;-56
2022/02/12 04:42:49;;;;;;;4.03;3.13;;;16.70;45.30;;;;;;5134767;28;20015;-52
2022/02/12 04:45:15;;;;;;;4.85;3.20;;;16.80;45.40;;;;;;5134451;28;20114;-52
2022/02/12 04:47:42;;;;;;;5.13;3.03;;;16.80;45.40;;;;;;5134944;27;20069;-54
2022/02/12 04:50:09;;;;;;;6.10;3.28;;;16.70;45.40;;;;;;5137779;28;20057;-53
2022/02/12 04:52:35;;;;;;;6.68;2.88;;;16.70;45.40;;;;;;5139005;27;20023;-49
2022/02/12 04:55:02;;;;;;;4.07;3.08;;;16.70;45.40;;;;;;5137903;28;20007;-51
2022/02/12 04:57:27;;;;;;;4.43;3.38;;;16.70;45.40;;;;;;5136153;27;20027;-51
2022/02/12 04:59:54;;;;;;;3.90;2.78;;;16.70;45.50;;;;;;5134721;28;20020;-56
2022/02/12 05:02:19;;;;;;;4.70;3.25;;;16.70;45.50;;;;;;5134135;27;20397;-49
2022/02/12 05:04:46;;;;;;;4.75;2.85;;;16.70;45.50;;;;;;5133981;28;20015;-48
2022/02/12 05:07:12;;;;;;;5.20;2.92;;;16.70;45.50;;;;;;5132895;28;20027;-48
2022/02/12 05:09:38;;;;;;;4.00;2.70;;;16.60;45.40;;;;;;5132830;28;20546;-47
2022/02/12 05:12:04;;;;;;;4.65;3.30;;;16.70;45.50;;;;;;5132817;27;20024;-49
2022/02/12 05:14:31;;;;;;;4.50;3.10;;;16.70;45.50;;;;;;5136256;27;20027;-49
2022/02/12 05:16:58;;;;;;;4.30;2.75;;;16.70;45.50;;;;;;5137625;27;20050;-48
2022/02/12 05:19:24;;;;;;;6.22;3.00;;;16.70;45.60;;;;;;5137387;27;20134;-48
2022/02/12 05:21:50;;;;;;;4.43;2.85;;;16.60;45.50;;;;;;5137241;27;20473;-53
2022/02/12 05:24:16;;;;;;;3.92;2.88;;;16.60;45.60;;;;;;5137157;27;20051;-53
2022/02/12 05:26:42;;;;;;;4.22;2.97;;;16.60;45.60;;;;;;5135701;27;20072;-50
2022/02/12 05:29:08;;;;;;;4.25;2.85;;;16.60;45.50;;;;;;5136934;27;20031;-53
2022/02/12 05:31:36;;;;;;;6.05;3.25;;;16.60;45.50;;;;;;5137134;27;20015;-50
2022/02/12 05:34:02;;;;;;;4.88;3.33;;;16.60;45.50;;;;;;5135840;27;20012;-50
2022/02/12 05:36:28;;;;;;;3.75;2.70;;;16.60;45.50;;;;;;5135929;27;20051;-51
2022/02/12 05:38:54;;;;;;;4.68;3.17;;;16.60;45.50;;;;;;5137104;27;20026;-49
2022/02/12 05:41:21;;;;;;;4.13;2.78;;;16.60;45.60;;;;;;5140104;27;20035;-50
2022/02/12 05:43:47;;;;;;;3.97;2.80;;;16.60;45.60;;;;;;5138532;27;20046;-47
2022/02/12 05:46:13;;;;;;;4.47;2.95;;;16.60;45.50;;;;;;5137681;27;20474;-49
2022/02/12 05:48:39;;;;;;;4.15;2.72;;;16.60;45.50;;;;;;5137766;27;20031;-49
2022/02/12 05:51:05;;;;;;;4.53;3.03;;;16.60;45.60;;;;;;5138124;27;20091;-51
2022/02/12 05:53:31;;;;;;;5.97;3.28;;;16.60;45.60;;;;;;5138215;27;20088;-50
2022/02/12 05:55:57;;;;;;;5.65;3.17;;;16.60;45.60;;;;;;5138503;27;20027;-48
2022/02/12 05:58:23;;;;;;;5.00;2.78;;;16.60;45.60;;;;;;5136681;27;20441;-51
2022/02/12 06:00:50;;;;;;;4.75;2.70;;;16.60;45.60;;;;;;5136723;27;20015;-50
2022/02/12 06:03:16;;;;;;;6.03;2.80;;;16.60;45.60;;;;;;5137566;27;20019;-48
2022/02/12 06:05:42;;;;;;;4.82;3.10;;;16.60;45.60;;;;;;5137091;27;20051;-49
2022/02/12 06:08:07;;;;;;;5.97;3.05;;;16.50;45.60;;;;;;5136841;27;20024;-53
2022/02/12 06:10:33;;;;;;;4.00;2.83;;;16.50;45.60;;;;;;5136189;27;20015;-50
2022/02/12 06:12:59;;;;;;;3.95;2.75;;;16.50;45.60;;;;;;5137642;27;20030;-52
2022/02/12 06:15:25;;;;;;;5.18;3.45;;;16.50;45.60;;;;;;5137647;27;20008;-49
2022/02/12 06:17:51;;;;;;;4.50;2.78;;;16.50;45.60;;;;;;5138174;27;20023;-51
2022/02/12 06:20:19;;;;;;;7.20;3.10;;;16.50;45.60;;;;;;5140917;27;20039;-52
2022/02/12 06:22:46;;;;;;;4.57;2.92;;;16.60;45.60;;;;;;5138937;27;20015;-52
2022/02/12 06:25:11;;;;;;;4.28;3.05;;;16.60;45.60;;;;;;5119207;27;20027;-51
2022/02/12 06:27:37;;;;;;;4.65;3.03;;;16.50;45.60;;;;;;5138606;27;20486;-52
2022/02/12 06:30:04;;;;;;;4.28;3.05;;;16.50;45.60;;;;;;5136958;27;20063;-51
2022/02/12 06:32:29;;;;;;;8.05;3.42;;;16.50;45.60;;;;;;5138142;27;20007;-53
2022/02/12 06:34:59;;;;;;;5.13;3.05;;;16.50;45.60;;;;;;5135661;27;20016;-51
2022/02/12 06:37:25;;;;;;;6.90;3.20;;;16.50;45.60;;;;;;5137156;27;20043;-50
2022/02/12 06:39:51;;;;;;;4.60;2.85;;;16.50;45.60;;;;;;5136898;27;20018;-51
2022/02/12 06:42:17;;;;;;;4.15;2.67;;;16.50;45.60;;;;;;5135973;27;20023;-50
2022/02/12 06:44:42;;;;;;;4.10;2.95;;;16.50;45.60;;;;;;5136181;27;20086;-52
2022/02/12 06:47:08;;;;;;;6.63;3.17;;;16.50;45.60;;;;;;5136260;27;20473;-48
2022/02/12 06:49:34;;;;;;;3.85;2.70;;;16.40;45.60;;;;;;5135685;27;20442;-51
2022/02/12 06:52:01;;;;;;;4.28;2.80;;;16.40;45.60;;;;;;5137032;27;20530;-51
2022/02/12 06:54:27;;;;;;;3.97;2.88;;;16.40;45.70;;;;;;5136754;27;20061;-53
2022/02/12 06:56:52;;;;;;;7.55;3.13;;;16.40;45.60;;;;;;5135123;27;20016;-49
2022/02/12 06:59:19;;;;;;;4.97;3.00;;;16.50;45.70;;;;;;5136053;27;20011;-52
2022/02/12 07:01:44;;;;;;;5.55;3.22;;;16.50;45.70;;;;;;5134663;27;20023;-51
2022/02/12 07:04:11;;;;;;;3.95;2.65;;;16.40;45.70;;;;;;5135606;27;20090;-53
2022/02/12 07:06:37;;;;;;;5.13;3.05;;;16.40;45.70;;;;;;5133871;27;20504;-52
2022/02/12 07:09:04;;;;;;;5.60;3.28;;;16.40;45.60;;;;;;5133967;27;20045;-52
2022/02/12 07:11:30;;;;;;;5.18;3.05;;;16.40;45.60;;;;;;5135170;27;20011;-53
2022/02/12 07:13:56;;;;;;;5.18;2.92;;;16.40;45.70;;;;;;5134846;27;20095;-52
2022/02/12 07:16:23;;;;;;;6.22;3.00;;;16.40;45.70;;;;;;5134221;27;20107;-52
2022/02/12 07:18:50;;;;;;;3.35;2.78;;;16.40;45.60;;;;;;5135539;27;20075;-52
2022/02/12 07:21:15;;;;;;;3.38;2.65;;;16.40;45.70;;;;;;5135782;27;20088;-52
2022/02/12 07:23:42;;;;;;;4.55;3.03;;;16.40;45.60;;;;;;5135568;27;20026;-53
2022/02/12 07:26:08;;;;;;;4.43;2.55;;;16.40;45.60;;;;;;5116659;27;20587;-52
2022/02/12 07:28:40;;;;;;;4.10;2.60;;;16.40;45.70;;;;;;5134582;27;20102;-53
2022/02/12 07:31:08;;;;;;;4.55;2.83;;;16.40;45.70;;;;;;5133441;27;20030;-50
2022/02/12 07:33:34;;;;;;;4.28;2.85;;;16.40;45.70;;;;;;5134433;27;20012;-50
2022/02/12 07:36:00;;;;;;;3.78;2.75;;;16.40;45.80;;;;;;5115755;27;20019;-53
2022/02/12 07:38:26;;;;;;;4.07;2.78;;;16.40;45.70;;;;;;5134339;27;20031;-52
2022/02/12 07:40:52;;;;;;;5.93;2.95;;;16.40;45.70;;;;;;5134242;27;20094;-53
2022/02/12 07:43:18;;;;;;;5.35;2.60;;;16.30;45.70;;;;;;5132992;27;20505;-50
2022/02/12 07:45:44;;;;;;;3.95;2.83;;;16.40;45.70;;;;;;5132827;27;20019;-54
2022/02/12 07:48:12;;;;;;;4.68;3.05;;;16.30;45.70;;;;;;5133054;27;20023;-51
2022/02/12 07:50:38;;;;;;;5.00;3.00;;;16.40;45.80;;;;;;5134262;27;20011;-51
2022/02/12 07:53:06;;;;;;;3.17;2.63;;;16.30;45.70;;;;;;5133054;27;20016;-53
2022/02/12 07:55:33;;;;;;;2.92;2.38;;;16.30;45.70;;;;;;5134440;27;20092;-52
2022/02/12 07:57:58;;;;;;;4.55;2.75;;;16.30;45.70;;;;;;5134348;27;20017;-52
2022/02/12 08:00:25;;;;;;;4.63;2.92;;;16.30;45.70;;;;;;5133221;27;20015;-52
2022/02/12 08:02:50;;;;;;;4.05;2.60;;;16.40;45.70;;;;;;5133014;27;20076;-53
2022/02/12 08:05:16;;;;;;;5.63;3.03;;;16.40;45.60;;;;;;5133888;27;20057;-50
2022/02/12 08:07:42;;;;;;;4.43;2.88;;;16.30;45.60;;;;;;5135271;27;20042;-52
2022/02/12 08:12:56;;;;;;;5.88;2.85;;;16.30;45.60;;;;;;5134006;27;20022;-52
2022/02/12 08:15:22;;;;;;;3.33;2.47;;;16.30;45.60;;;;;;5134238;28;20374;-51
2022/02/12 08:17:48;;;;;;;3.45;2.65;;;16.40;45.60;;;;;;5133132;28;20019;-52
2022/02/12 08:20:14;;;;;;;5.47;3.03;;;16.40;45.60;;;;;;5133950;27;20593;-51
2022/02/12 08:22:40;;;;;;;4.30;3.00;;;16.30;45.60;;;;;;5132762;28;20023;-52
2022/02/12 08:25:06;;;;;;;4.72;3.20;;;16.40;45.70;;;;;;5133897;28;20512;-52
2022/02/12 08:27:32;;;;;;;5.97;2.80;;;16.30;45.60;;;;;;5134035;28;20011;-53
2022/02/12 08:29:58;;;;;;;4.20;2.80;;;16.30;45.60;;;;;;5134040;28;20030;-52
2022/02/12 08:32:23;;;;;;;4.70;3.00;;;16.30;45.60;;;;;;5134200;28;20570;-50
2022/02/12 08:34:50;;;;;;;4.30;2.70;;;16.30;45.60;;;;;;5133459;28;20492;-52
2022/02/12 08:37:17;;;;;;;5.38;2.65;;;16.30;45.60;;;;;;5134319;27;20019;-51
2022/02/12 08:39:43;;;;;;;3.88;2.70;;;16.30;45.60;;;;;;5133935;27;20039;-52
2022/02/12 08:42:09;;;;;;;3.85;2.72;;;16.30;45.60;;;;;;5133303;28;20047;-50
2022/02/12 08:44:35;;;;;;;3.90;2.75;;;16.30;45.60;;;;;;5134608;28;20058;-52
2022/02/12 08:47:01;;;;;;;3.38;2.50;;;16.30;45.60;;;;;;5134632;27;20034;-52
2022/02/12 08:49:26;;;;;;;5.03;2.45;;;16.30;45.60;;;;;;5138400;27;20025;-53
2022/02/12 08:51:53;;;;;;;4.90;3.05;;;16.30;45.60;;;;;;5138318;27;20094;-52
2022/02/12 08:54:18;;;;;;;3.72;2.53;;;16.30;45.60;;;;;;5137917;27;20520;-52
2022/02/12 08:56:44;;;;;;;3.83;2.50;;;16.30;45.60;;;;;;5137424;27;20496;-51
2022/02/12 08:59:10;;;;;;;6.75;2.92;;;16.30;45.60;;;;;;5138560;27;20087;-52
2022/02/12 09:01:40;;;;;;;3.60;2.80;;;16.30;45.60;;;;;;5138892;27;20015;-49
2022/02/12 09:04:06;;;;;;;3.83;2.88;;;16.30;45.50;;;;;;5137923;27;20042;-54
2022/02/12 09:06:32;;;;;;;4.90;2.53;;;16.30;45.60;;;;;;5137646;27;20027;-48
2022/02/12 09:09:01;;;;;;;3.95;2.75;;;16.30;45.60;;;;;;5137505;27;20023;-53
2022/02/12 09:11:26;;;;;;;3.60;2.63;;;16.30;45.50;;;;;;5138254;27;20466;-52
2022/02/12 09:13:53;;;;;;;4.75;2.72;;;16.30;45.60;;;;;;5137897;27;20030;-51
2022/02/12 09:16:20;;;;;;;4.05;2.70;;;16.30;45.50;;;;;;5136522;27;20015;-48
2022/02/12 09:18:46;;;;;;;5.05;2.78;;;16.30;45.50;;;;;;5137362;27;20043;-48
2022/02/12 09:21:12;;;;;;;3.92;2.63;;;16.30;45.50;;;;;;5137157;27;20095;-52
2022/02/12 09:23:38;;;;;;;4.72;2.45;;;16.30;45.50;;;;;;5136919;27;20047;-52
2022/02/12 09:26:05;;;;;;;4.15;2.60;;;16.30;45.50;;;;;;5137065;27;20019;-51
2022/02/12 09:28:31;;;;;;;5.40;2.30;;;16.30;45.50;;;;;;5135711;27;20159;-52
2022/02/12 09:30:56;;;;;;;3.63;2.65;;;16.30;45.50;;;;;;5135305;27;20022;-49
2022/02/12 09:33:22;;;;;;;3.78;2.38;;;16.40;45.50;;;;;;5136478;27;20014;-53
2022/02/12 09:35:53;;;;;;;3.95;2.70;;;16.40;45.50;;;;;;5136834;27;20426;-52
2022/02/12 09:38:31;;;;;;;3.17;2.40;;;16.30;45.40;;;;;;5136561;27;20083;-52
2022/02/12 09:40:57;;;;;;;4.57;2.53;;;16.30;45.40;;;;;;5135951;27;20365;-54
2022/02/12 09:43:27;;;;;;;3.80;2.85;;;16.30;45.40;;;;;;5136083;27;20019;-52
2022/02/12 09:45:59;;;;;;;4.90;2.92;;;16.30;45.40;;;;;;5134764;27;20007;-51
2022/02/12 09:48:24;;;;;;;3.22;2.47;;;16.30;45.30;;;;;;5136346;27;20488;-53
2022/02/12 09:50:51;;;;;;;6.07;2.58;;;16.30;45.40;;;;;;5135306;27;20023;-52
2022/02/12 09:53:17;;;;;;;3.85;2.53;;;16.30;45.40;;;;;;5135770;27;20082;-52
2022/02/12 09:55:43;;;;;;;4.40;2.63;;;16.30;45.40;;;;;;5134340;27;20046;-53
2022/02/12 09:58:14;;;;;;;3.55;2.55;;;16.30;45.40;;;;;;5135641;27;20056;-51
2022/02/12 10:00:40;;;;;;;3.35;2.30;;;16.30;45.40;;;;;;5134866;27;20473;-52
2022/02/12 10:03:06;;;;;;;3.88;2.40;;;16.30;45.50;;;;;;5134918;27;20050;-49
2022/02/12 10:05:31;;;;;;;4.43;2.75;;;16.30;45.40;;;;;;5135885;27;20129;-48
2022/02/12 10:08:00;;;;;;;3.63;2.58;;;16.30;45.40;;;;;;5136220;27;20060;-47
2022/02/12 10:10:28;;;;;;;5.00;2.67;;;16.30;45.40;;;;;;5135834;27;20141;-50
2022/02/12 10:13:20;;;;;;;3.95;2.40;;;16.40;45.40;;;;;;5135817;27;20018;-51
2022/02/12 10:15:56;;;;;;;4.10;2.42;;;16.30;45.40;;;;;;5135102;27;20011;-53
2022/02/12 10:18:26;;;;;;;4.07;2.22;;;16.30;45.30;;;;;;5135917;27;20042;-50
2022/02/12 10:20:54;;;;;;;4.53;2.63;;;16.30;45.40;;;;;;5136734;27;20007;-51
2022/02/12 10:23:24;;;;;;;4.20;2.60;;;16.30;45.30;;;;;;5134803;27;20030;-50
2022/02/12 10:26:02;;;;;;;3.53;2.28;;;16.30;45.40;;;;;;5135968;27;20091;-49
2022/02/12 10:28:33;;;;;;;3.42;2.45;;;16.40;45.40;;;;;;5136696;27;20015;-51
2022/02/12 10:30:59;;;;;;;3.83;2.23;;;16.30;45.30;;;;;;5136577;27;20756;-50
2022/02/12 10:33:25;;;;;;;4.50;2.95;;;16.30;45.40;;;;;;5135629;27;20285;-48
2022/02/12 10:35:59;;;;;;;3.47;2.17;;;16.30;45.30;;;;;;5135480;27;20043;-50
2022/02/12 10:38:28;;;;;;;2.90;2.10;;;16.30;45.30;;;;;;5135405;27;20030;-48
2022/02/12 10:41:14;;;;;;;4.22;2.50;;;16.40;45.40;;;;;;5135155;27;20015;-47
2022/02/12 10:43:41;;;;;;;3.95;2.30;;;16.30;45.30;;;;;;5135153;27;20064;-46
2022/02/12 10:46:06;;;;;;;4.82;2.85;;;16.30;45.30;;;;;;5133321;27;20082;-47
2022/02/12 10:48:35;;;;;;;3.10;2.17;;;16.30;45.30;;;;;;5134308;27;20035;-49
2022/02/12 10:51:01;;;;;;;3.60;2.35;;;16.30;45.30;;;;;;5134661;27;20090;-47
2022/02/12 10:53:28;;;;;;;5.40;2.42;;;16.40;45.30;;;;;;5134956;27;20071;-50
2022/02/12 10:56:00;;;;;;;5.30;2.47;;;16.40;45.90;;;;;;5135025;27;20020;-48
2022/02/12 10:58:26;;;;;;;3.17;2.30;;;16.30;45.30;;;;;;5134778;27;20033;-47
2022/02/12 11:00:52;;;;;;;4.70;2.58;;;16.30;45.20;;;;;;5134559;27;20414;-49
2022/02/12 11:03:20;;;;;;;4.13;2.30;;;16.30;45.80;;;;;;5133132;27;20077;-51
2022/02/12 11:05:52;;;;;;;4.72;2.58;;;16.30;45.30;;;;;;5133287;27;20091;-50
2022/02/12 11:08:21;;;;;;;3.45;2.22;;;16.30;45.30;;;;;;5134286;27;20538;-51
2022/02/12 11:10:47;;;;;;;3.28;2.28;;;16.30;45.30;;;;;;5133774;27;20023;-47
2022/02/12 11:13:13;;;;;;;3.63;2.35;;;16.30;45.20;;;;;;5134565;27;20382;-47
2022/02/12 11:15:39;;;;;;;3.20;2.17;;;16.30;45.20;;;;;;5134571;27;20012;-47
2022/02/12 11:18:10;;;;;;;3.55;2.40;;;16.30;45.20;;;;;;5133458;27;20482;-49
2022/02/12 11:20:37;;;;;;;3.38;2.50;;;16.30;45.20;;;;;;5134358;27;20053;-48
2022/02/12 11:23:27;;;;;;;3.50;2.53;;;16.30;45.20;;;;;;5116654;27;20019;-51
2022/02/12 11:26:17;;;;;;;3.35;2.47;;;16.30;45.20;;;;;;5135281;27;20015;-51
2022/02/12 11:28:43;;;;;;;4.43;2.25;;;16.30;45.20;;;;;;5134087;27;20015;-48
2022/02/12 11:31:15;;;;;;;3.38;2.45;;;16.30;45.20;;;;;;5133097;27;20019;-51
2022/02/12 11:34:10;;;;;;;3.67;2.50;;;16.30;45.20;;;;;;5134258;27;20011;-48
2022/02/12 11:36:37;;;;;;;2.20;1.85;;;16.30;45.20;;;;;;5133215;27;20019;-51
2022/02/12 11:39:09;;;;;;;3.15;2.33;;;16.30;45.20;;;;;;5133432;27;20026;-46
2022/02/12 11:41:35;;;;;;;3.50;1.95;;;16.30;45.20;;;;;;5134444;27;20046;-47
2022/02/12 11:44:01;;;;;;;3.85;2.10;;;16.30;45.20;;;;;;5135108;27;20019;-47
2022/02/12 11:46:48;;;;;;;2.97;2.03;;;16.30;45.20;;;;;;5134553;27;20587;-51
2022/02/12 11:49:28;;;;;;;3.50;2.25;;;16.30;45.20;;;;;;5133907;27;20485;-51
2022/02/12 11:51:54;;;;;;;3.70;2.33;;;16.30;45.10;;;;;;5134129;27;20011;-52
2022/02/12 11:54:49;;;;;;;3.78;2.50;;;16.30;45.10;;;;;;5134134;27;20018;-51
2022/02/12 11:57:38;;;;;;;2.65;2.10;;;16.30;45.10;;;;;;5134394;27;20779;-52
2022/02/12 12:00:04;;;;;;;3.25;1.88;;;16.30;45.10;;;;;;5134224;27;20582;-48
2022/02/12 12:02:51;;;;;;;3.03;2.20;;;16.30;45.10;;;;;;5134148;27;20015;-49
2022/02/12 12:05:24;;;;;;;3.60;2.40;;;16.30;45.10;;;;;;5134066;27;20027;-49
2022/02/12 12:08:16;;;;;;;3.78;2.20;;;16.30;45.10;;;;;;5133027;27;20015;-53
2022/02/12 12:10:51;;;;;;;3.10;2.10;;;16.30;45.00;;;;;;5130120;27;20077;-51
2022/02/12 12:13:17;;;;;;;3.53;2.10;;;16.30;45.00;;;;;;5133979;27;20019;-48
2022/02/12 12:15:49;;;;;;;4.00;2.10;;;16.30;45.10;;;;;;5134085;27;20042;-51
2022/02/12 12:18:16;;;;;;;2.85;2.00;;;16.30;45.00;;;;;;5133949;27;20018;-51
2022/02/12 12:20:43;;;;;;;3.78;2.10;;;16.30;45.00;;;;;;5133092;28;20024;-52
2022/02/12 12:23:12;;;;;;;2.78;2.47;;;16.30;45.00;;;;;;5138529;27;20015;-49
2022/02/12 12:25:53;;;;;;;4.45;2.35;;;16.30;45.00;;;;;;5139120;27;20027;-49
2022/02/12 12:28:37;;;;;;;3.00;2.17;;;16.30;45.10;;;;;;5138955;27;20045;-49
2022/02/12 12:31:10;;;;;;;3.88;2.33;;;16.30;45.00;;;;;;5138863;27;20011;-49
2022/02/12 12:33:43;;;;;;;5.13;2.40;;;16.30;44.90;;;;;;5137438;27;20423;-49
2022/02/12 12:36:12;;;;;;;3.33;2.40;;;16.30;45.00;;;;;;5138376;27;20012;-51
2022/02/12 12:38:42;;;;;;;2.65;1.85;;;16.30;45.00;;;;;;5137470;27;20058;-51
2022/02/12 12:41:35;;;;;;;4.75;2.40;;;16.30;45.00;;;;;;5138487;27;20023;-53
2022/02/12 12:44:16;;;;;;;3.47;2.30;;;16.30;44.90;;;;;;5137957;27;20076;-50
2022/02/12 12:46:49;;;;;;;2.70;2.00;;;16.30;44.90;;;;;;5139444;27;20022;-49
2022/02/12 12:49:33;;;;;;;2.75;1.95;;;16.30;44.90;;;;;;5140180;27;20019;-47
2022/02/12 12:52:00;;;;;;;2.75;2.17;;;16.30;44.90;;;;;;5138260;27;20470;-51
2022/02/12 12:54:30;;;;;;;4.80;2.25;;;16.30;44.90;;;;;;5136986;27;20040;-51
2022/02/12 12:56:57;;;;;;;4.35;2.17;;;16.30;44.90;;;;;;5137922;27;20079;-49
2022/02/12 12:59:23;;;;;;;2.65;1.98;;;16.30;44.80;;;;;;5138029;27;20011;-51